sensor_id;sensor_type;location;lat;lon;timestamp;P1;durP1;ratioP1;P2;durP2;ratioP2
14121;SDS011;7139;48.114;11.442;2024-03-02T00:01:30;9.57;;;8.60;;
14121;SDS011;7139;48.114;11.442;2024-03-02T00:03:57;10.13;;;9.23;;
14121;SDS011;7139;48.114;11.442;2024-03-02T00:06:25;10.43;;;9.43;;
14121;SDS011;7139;48.114;11.442;2024-03-02T00:08:56;10.57;;;9.43;;
14121;SDS011;7139;48.114;11.442;2024-03-02T00:11:23;10.20;;;9.30;;
14121;SDS011;7139;48.114;11.442;2024-03-02T00:13:52;10.67;;;9.67;;
14121;SDS011;7139;48.114;11.442;2024-03-02T00:16:20;10.17;;;9.17;;
14121;SDS011;7139;48.114;11.442;2024-03-02T00:18:47;10.10;;;9.00;;
14121;SDS011;7139;48.114;11.442;2024-03-02T00:21:15;10.60;;;9.40;;
14121;SDS011;7139;48.114;11.442;2024-03-02T00:23:45;10.70;;;9.53;;
14121;SDS011;7139;48.114;11.442;2024-03-02T00:26:13;9.33;;;8.53;;
14121;SDS011;7139;48.114;11.442;2024-03-02T00:28:41;10.50;;;9.50;;
14121;SDS011;7139;48.114;11.442;2024-03-02T00:31:10;10.63;;;9.53;;
14121;SDS011;7139;48.114;11.442;2024-03-02T00:33:39;9.90;;;8.90;;
14121;SDS011;7139;48.114;11.442;2024-03-02T00:36:07;10.23;;;9.20;;
14121;SDS011;7139;48.114;11.442;2024-03-02T00:38:35;11.07;;;9.93;;
14121;SDS011;7139;48.114;11.442;2024-03-02T00:41:14;11.73;;;10.47;;
14121;SDS011;7139;48.114;11.442;2024-03-02T00:43:44;10.70;;;9.70;;
14121;SDS011;7139;48.114;11.442;2024-03-02T00:46:12;11.10;;;10.00;;
14121;SDS011;7139;48.114;11.442;2024-03-02T00:48:47;10.20;;;9.20;;
14121;SDS011;7139;48.114;11.442;2024-03-02T00:51:14;11.03;;;9.93;;
14121;SDS011;7139;48.114;11.442;2024-03-02T00:53:41;11.30;;;10.10;;
14121;SDS011;7139;48.114;11.442;2024-03-02T00:56:09;11.27;;;10.17;;
14121;SDS011;7139;48.114;11.442;2024-03-02T00:58:36;12.33;;;11.07;;
14121;SDS011;7139;48.114;11.442;2024-03-02T01:01:04;11.67;;;10.47;;
14121;SDS011;7139;48.114;11.442;2024-03-02T01:03:32;11.00;;;9.90;;
14121;SDS011;7139;48.114;11.442;2024-03-02T01:05:59;12.30;;;11.00;;
14121;SDS011;7139;48.114;11.442;2024-03-02T01:08:26;12.07;;;10.57;;
14121;SDS011;7139;48.114;11.442;2024-03-02T01:10:53;12.33;;;11.07;;
14121;SDS011;7139;48.114;11.442;2024-03-02T01:13:21;12.27;;;11.07;;
14121;SDS011;7139;48.114;11.442;2024-03-02T01:15:48;11.97;;;10.77;;
14121;SDS011;7139;48.114;11.442;2024-03-02T01:18:16;11.47;;;10.27;;
14121;SDS011;7139;48.114;11.442;2024-03-02T01:20:44;11.37;;;10.27;;
14121;SDS011;7139;48.114;11.442;2024-03-02T01:23:11;11.67;;;10.50;;
14121;SDS011;7139;48.114;11.442;2024-03-02T01:25:38;12.23;;;11.03;;
14121;SDS011;7139;48.114;11.442;2024-03-02T01:28:05;11.80;;;10.70;;
14121;SDS011;7139;48.114;11.442;2024-03-02T01:30:33;11.27;;;10.27;;
14121;SDS011;7139;48.114;11.442;2024-03-02T01:33:00;11.47;;;10.27;;
14121;SDS011;7139;48.114;11.442;2024-03-02T01:35:28;12.27;;;11.07;;
14121;SDS011;7139;48.114;11.442;2024-03-02T01:37:56;11.80;;;10.53;;
14121;SDS011;7139;48.114;11.442;2024-03-02T01:40:23;11.73;;;10.53;;
14121;SDS011;7139;48.114;11.442;2024-03-02T01:42:51;11.30;;;10.20;;
14121;SDS011;7139;48.114;11.442;2024-03-02T01:45:18;12.47;;;11.17;;
14121;SDS011;7139;48.114;11.442;2024-03-02T01:47:45;11.50;;;10.40;;
14121;SDS011;7139;48.114;11.442;2024-03-02T01:50:12;12.00;;;10.80;;
14121;SDS011;7139;48.114;11.442;2024-03-02T01:52:41;11.70;;;10.53;;
14121;SDS011;7139;48.114;11.442;2024-03-02T01:55:09;10.97;;;9.93;;
14121;SDS011;7139;48.114;11.442;2024-03-02T01:57:37;11.73;;;10.53;;
14121;SDS011;7139;48.114;11.442;2024-03-02T02:00:04;11.40;;;10.33;;
14121;SDS011;7139;48.114;11.442;2024-03-02T02:02:34;11.57;;;10.47;;
14121;SDS011;7139;48.114;11.442;2024-03-02T02:05:02;11.73;;;10.53;;
14121;SDS011;7139;48.114;11.442;2024-03-02T02:07:29;12.40;;;11.20;;
14121;SDS011;7139;48.114;11.442;2024-03-02T02:09:57;11.63;;;10.43;;
14121;SDS011;7139;48.114;11.442;2024-03-02T02:12:24;11.83;;;10.70;;
14121;SDS011;7139;48.114;11.442;2024-03-02T02:14:51;12.07;;;10.87;;
14121;SDS011;7139;48.114;11.442;2024-03-02T02:17:19;11.17;;;10.17;;
14121;SDS011;7139;48.114;11.442;2024-03-02T02:19:46;11.47;;;10.27;;
14121;SDS011;7139;48.114;11.442;2024-03-02T02:22:14;11.80;;;10.53;;
14121;SDS011;7139;48.114;11.442;2024-03-02T02:24:41;11.53;;;10.50;;
14121;SDS011;7139;48.114;11.442;2024-03-02T02:27:09;12.47;;;11.17;;
14121;SDS011;7139;48.114;11.442;2024-03-02T02:29:37;11.40;;;10.30;;
14121;SDS011;7139;48.114;11.442;2024-03-02T02:32:05;11.53;;;10.43;;
14121;SDS011;7139;48.114;11.442;2024-03-02T02:34:32;12.10;;;10.90;;
14121;SDS011;7139;48.114;11.442;2024-03-02T02:36:59;12.27;;;11.07;;
14121;SDS011;7139;48.114;11.442;2024-03-02T02:39:28;12.33;;;11.13;;
14121;SDS011;7139;48.114;11.442;2024-03-02T02:41:55;13.37;;;12.07;;
14121;SDS011;7139;48.114;11.442;2024-03-02T02:44:22;11.30;;;10.30;;
14121;SDS011;7139;48.114;11.442;2024-03-02T02:46:49;12.30;;;11.10;;
14121;SDS011;7139;48.114;11.442;2024-03-02T02:49:16;11.50;;;10.40;;
14121;SDS011;7139;48.114;11.442;2024-03-02T02:51:43;11.20;;;10.10;;
14121;SDS011;7139;48.114;11.442;2024-03-02T02:54:10;12.00;;;10.90;;
14121;SDS011;7139;48.114;11.442;2024-03-02T02:56:38;12.30;;;11.10;;
14121;SDS011;7139;48.114;11.442;2024-03-02T02:59:06;12.20;;;11.00;;
14121;SDS011;7139;48.114;11.442;2024-03-02T03:01:33;14.17;;;12.50;;
14121;SDS011;7139;48.114;11.442;2024-03-02T03:04:00;13.20;;;11.80;;
14121;SDS011;7139;48.114;11.442;2024-03-02T03:06:27;12.60;;;11.40;;
14121;SDS011;7139;48.114;11.442;2024-03-02T03:08:54;14.73;;;12.77;;
14121;SDS011;7139;48.114;11.442;2024-03-02T03:11:20;12.90;;;11.57;;
14121;SDS011;7139;48.114;11.442;2024-03-02T03:13:49;13.27;;;11.87;;
14121;SDS011;7139;48.114;11.442;2024-03-02T03:16:16;13.43;;;12.13;;
14121;SDS011;7139;48.114;11.442;2024-03-02T03:18:43;11.80;;;10.63;;
14121;SDS011;7139;48.114;11.442;2024-03-02T03:21:10;13.53;;;12.13;;
14121;SDS011;7139;48.114;11.442;2024-03-02T03:23:37;13.10;;;11.80;;
14121;SDS011;7139;48.114;11.442;2024-03-02T03:26:04;12.40;;;11.10;;
14121;SDS011;7139;48.114;11.442;2024-03-02T03:28:31;12.97;;;11.10;;
14121;SDS011;7139;48.114;11.442;2024-03-02T03:31:00;13.10;;;11.77;;
14121;SDS011;7139;48.114;11.442;2024-03-02T03:33:27;11.50;;;10.40;;
14121;SDS011;7139;48.114;11.442;2024-03-02T03:35:54;12.40;;;11.07;;
14121;SDS011;7139;48.114;11.442;2024-03-02T03:38:21;12.27;;;10.97;;
14121;SDS011;7139;48.114;11.442;2024-03-02T03:40:48;12.80;;;11.23;;
14121;SDS011;7139;48.114;11.442;2024-03-02T03:43:15;14.47;;;12.60;;
14121;SDS011;7139;48.114;11.442;2024-03-02T03:45:42;15.60;;;13.77;;
14121;SDS011;7139;48.114;11.442;2024-03-02T03:48:11;15.13;;;13.53;;
14121;SDS011;7139;48.114;11.442;2024-03-02T03:50:38;14.07;;;12.00;;
14121;SDS011;7139;48.114;11.442;2024-03-02T03:53:05;14.40;;;12.00;;
14121;SDS011;7139;48.114;11.442;2024-03-02T03:55:32;14.47;;;13.00;;
14121;SDS011;7139;48.114;11.442;2024-03-02T03:57:59;13.53;;;11.90;;
14121;SDS011;7139;48.114;11.442;2024-03-02T04:00:26;15.93;;;13.37;;
14121;SDS011;7139;48.114;11.442;2024-03-02T04:02:53;14.27;;;12.63;;
14121;SDS011;7139;48.114;11.442;2024-03-02T04:05:23;14.77;;;12.87;;
14121;SDS011;7139;48.114;11.442;2024-03-02T04:07:50;13.93;;;12.43;;
14121;SDS011;7139;48.114;11.442;2024-03-02T04:10:17;15.50;;;12.33;;
14121;SDS011;7139;48.114;11.442;2024-03-02T04:12:45;15.00;;;12.50;;
14121;SDS011;7139;48.114;11.442;2024-03-02T04:15:13;14.13;;;12.63;;
14121;SDS011;7139;48.114;11.442;2024-03-02T04:17:40;15.00;;;13.10;;
14121;SDS011;7139;48.114;11.442;2024-03-02T04:20:07;14.77;;;12.53;;
14121;SDS011;7139;48.114;11.442;2024-03-02T04:22:35;15.63;;;13.87;;
14121;SDS011;7139;48.114;11.442;2024-03-02T04:25:03;15.73;;;13.40;;
14121;SDS011;7139;48.114;11.442;2024-03-02T04:27:32;15.20;;;13.60;;
14121;SDS011;7139;48.114;11.442;2024-03-02T04:29:59;14.67;;;12.50;;
14121;SDS011;7139;48.114;11.442;2024-03-02T04:32:26;16.37;;;14.63;;
14121;SDS011;7139;48.114;11.442;2024-03-02T04:34:53;15.87;;;13.80;;
14121;SDS011;7139;48.114;11.442;2024-03-02T04:37:20;15.30;;;13.70;;
14121;SDS011;7139;48.114;11.442;2024-03-02T04:39:49;16.33;;;14.57;;
14121;SDS011;7139;48.114;11.442;2024-03-02T04:42:16;16.33;;;13.90;;
14121;SDS011;7139;48.114;11.442;2024-03-02T04:44:43;14.63;;;13.00;;
14121;SDS011;7139;48.114;11.442;2024-03-02T04:47:10;16.60;;;14.67;;
14121;SDS011;7139;48.114;11.442;2024-03-02T04:49:37;16.10;;;14.37;;
14121;SDS011;7139;48.114;11.442;2024-03-02T04:52:04;15.37;;;13.33;;
14121;SDS011;7139;48.114;11.442;2024-03-02T04:54:31;15.83;;;13.63;;
14121;SDS011;7139;48.114;11.442;2024-03-02T04:57:20;15.60;;;14.03;;
14121;SDS011;7139;48.114;11.442;2024-03-02T04:59:47;14.83;;;13.20;;
14121;SDS011;7139;48.114;11.442;2024-03-02T05:02:14;15.03;;;13.43;;
14121;SDS011;7139;48.114;11.442;2024-03-02T05:04:41;15.20;;;13.63;;
14121;SDS011;7139;48.114;11.442;2024-03-02T05:07:08;15.73;;;13.70;;
14121;SDS011;7139;48.114;11.442;2024-03-02T05:09:35;15.43;;;13.93;;
14121;SDS011;7139;48.114;11.442;2024-03-02T05:12:03;15.27;;;13.63;;
14121;SDS011;7139;48.114;11.442;2024-03-02T05:14:55;15.60;;;14.00;;
14121;SDS011;7139;48.114;11.442;2024-03-02T05:17:21;16.57;;;13.90;;
14121;SDS011;7139;48.114;11.442;2024-03-02T05:19:48;16.37;;;13.50;;
14121;SDS011;7139;48.114;11.442;2024-03-02T05:22:16;14.33;;;12.83;;
14121;SDS011;7139;48.114;11.442;2024-03-02T05:24:43;16.20;;;14.27;;
14121;SDS011;7139;48.114;11.442;2024-03-02T05:27:10;16.77;;;14.77;;
14121;SDS011;7139;48.114;11.442;2024-03-02T05:29:37;18.00;;;15.20;;
14121;SDS011;7139;48.114;11.442;2024-03-02T05:32:06;18.83;;;14.80;;
14121;SDS011;7139;48.114;11.442;2024-03-02T05:34:33;20.70;;;16.33;;
14121;SDS011;7139;48.114;11.442;2024-03-02T05:37:00;19.87;;;15.87;;
14121;SDS011;7139;48.114;11.442;2024-03-02T05:39:27;17.00;;;15.20;;
14121;SDS011;7139;48.114;11.442;2024-03-02T05:41:55;18.60;;;15.13;;
14121;SDS011;7139;48.114;11.442;2024-03-02T05:44:22;17.10;;;15.23;;
14121;SDS011;7139;48.114;11.442;2024-03-02T05:46:49;16.10;;;14.40;;
14121;SDS011;7139;48.114;11.442;2024-03-02T05:49:17;17.70;;;14.90;;
14121;SDS011;7139;48.114;11.442;2024-03-02T05:51:44;18.27;;;15.47;;
14121;SDS011;7139;48.114;11.442;2024-03-02T05:54:11;18.10;;;14.83;;
14121;SDS011;7139;48.114;11.442;2024-03-02T05:56:38;17.27;;;15.03;;
14121;SDS011;7139;48.114;11.442;2024-03-02T05:59:06;18.13;;;15.00;;
14121;SDS011;7139;48.114;11.442;2024-03-02T06:01:38;17.10;;;14.80;;
14121;SDS011;7139;48.114;11.442;2024-03-02T06:04:05;16.97;;;15.13;;
14121;SDS011;7139;48.114;11.442;2024-03-02T06:06:34;17.17;;;15.00;;
14121;SDS011;7139;48.114;11.442;2024-03-02T06:09:01;16.13;;;14.23;;
14121;SDS011;7139;48.114;11.442;2024-03-02T06:11:30;16.57;;;14.57;;
14121;SDS011;7139;48.114;11.442;2024-03-02T06:13:57;16.80;;;14.37;;
14121;SDS011;7139;48.114;11.442;2024-03-02T06:16:24;16.50;;;14.80;;
14121;SDS011;7139;48.114;11.442;2024-03-02T06:18:51;17.33;;;15.47;;
14121;SDS011;7139;48.114;11.442;2024-03-02T06:21:19;16.40;;;13.90;;
14121;SDS011;7139;48.114;11.442;2024-03-02T06:23:47;18.27;;;15.33;;
14121;SDS011;7139;48.114;11.442;2024-03-02T06:26:14;16.33;;;14.63;;
14121;SDS011;7139;48.114;11.442;2024-03-02T06:28:42;16.20;;;13.90;;
14121;SDS011;7139;48.114;11.442;2024-03-02T06:31:09;16.57;;;14.00;;
14121;SDS011;7139;48.114;11.442;2024-03-02T06:33:36;16.40;;;14.27;;
14121;SDS011;7139;48.114;11.442;2024-03-02T06:36:03;14.60;;;13.00;;
14121;SDS011;7139;48.114;11.442;2024-03-02T06:38:33;14.87;;;12.73;;
14121;SDS011;7139;48.114;11.442;2024-03-02T06:41:02;17.53;;;14.20;;
14121;SDS011;7139;48.114;11.442;2024-03-02T06:43:29;14.80;;;13.27;;
14121;SDS011;7139;48.114;11.442;2024-03-02T06:45:56;15.03;;;13.47;;
14121;SDS011;7139;48.114;11.442;2024-03-02T06:48:23;15.93;;;14.00;;
14121;SDS011;7139;48.114;11.442;2024-03-02T06:50:50;13.97;;;12.43;;
14121;SDS011;7139;48.114;11.442;2024-03-02T06:53:18;14.23;;;12.73;;
14121;SDS011;7139;48.114;11.442;2024-03-02T06:55:46;14.67;;;12.83;;
14121;SDS011;7139;48.114;11.442;2024-03-02T06:58:14;15.33;;;13.73;;
14121;SDS011;7139;48.114;11.442;2024-03-02T07:00:42;14.80;;;13.30;;
14121;SDS011;7139;48.114;11.442;2024-03-02T07:03:09;14.30;;;12.80;;
14121;SDS011;7139;48.114;11.442;2024-03-02T07:05:37;15.03;;;13.43;;
14121;SDS011;7139;48.114;11.442;2024-03-02T07:08:04;15.73;;;13.67;;
14121;SDS011;7139;48.114;11.442;2024-03-02T07:10:31;16.67;;;14.03;;
14121;SDS011;7139;48.114;11.442;2024-03-02T07:12:58;15.00;;;13.40;;
14121;SDS011;7139;48.114;11.442;2024-03-02T07:15:27;13.53;;;12.13;;
14121;SDS011;7139;48.114;11.442;2024-03-02T07:18:19;17.10;;;14.60;;
14121;SDS011;7139;48.114;11.442;2024-03-02T07:20:46;15.80;;;13.97;;
14121;SDS011;7139;48.114;11.442;2024-03-02T07:23:14;16.53;;;13.43;;
14121;SDS011;7139;48.114;11.442;2024-03-02T07:25:41;15.53;;;13.50;;
14121;SDS011;7139;48.114;11.442;2024-03-02T07:28:08;17.80;;;14.87;;
14121;SDS011;7139;48.114;11.442;2024-03-02T07:30:37;18.40;;;15.07;;
14121;SDS011;7139;48.114;11.442;2024-03-02T07:33:05;15.57;;;14.00;;
14121;SDS011;7139;48.114;11.442;2024-03-02T07:35:32;15.90;;;13.97;;
14121;SDS011;7139;48.114;11.442;2024-03-02T07:37:59;16.03;;;13.63;;
14121;SDS011;7139;48.114;11.442;2024-03-02T07:40:26;16.30;;;14.23;;
14121;SDS011;7139;48.114;11.442;2024-03-02T07:42:53;15.37;;;13.80;;
14121;SDS011;7139;48.114;11.442;2024-03-02T07:45:21;15.10;;;13.30;;
14121;SDS011;7139;48.114;11.442;2024-03-02T07:47:49;16.00;;;13.87;;
14121;SDS011;7139;48.114;11.442;2024-03-02T07:50:17;17.87;;;15.57;;
14121;SDS011;7139;48.114;11.442;2024-03-02T07:52:44;19.13;;;16.27;;
14121;SDS011;7139;48.114;11.442;2024-03-02T07:55:11;19.20;;;17.00;;
14121;SDS011;7139;48.114;11.442;2024-03-02T07:57:38;19.20;;;16.00;;
14121;SDS011;7139;48.114;11.442;2024-03-02T08:00:06;17.80;;;14.90;;
14121;SDS011;7139;48.114;11.442;2024-03-02T08:02:34;18.43;;;15.17;;
14121;SDS011;7139;48.114;11.442;2024-03-02T08:05:03;17.70;;;15.10;;
14121;SDS011;7139;48.114;11.442;2024-03-02T08:07:30;17.37;;;15.40;;
14121;SDS011;7139;48.114;11.442;2024-03-02T08:09:57;17.83;;;15.40;;
14121;SDS011;7139;48.114;11.442;2024-03-02T08:12:24;16.60;;;14.53;;
14121;SDS011;7139;48.114;11.442;2024-03-02T08:14:51;17.50;;;14.83;;
14121;SDS011;7139;48.114;11.442;2024-03-02T08:17:18;17.90;;;14.27;;
14121;SDS011;7139;48.114;11.442;2024-03-02T08:19:45;16.43;;;14.17;;
14121;SDS011;7139;48.114;11.442;2024-03-02T08:22:14;15.27;;;13.67;;
14121;SDS011;7139;48.114;11.442;2024-03-02T08:24:41;15.43;;;13.53;;
14121;SDS011;7139;48.114;11.442;2024-03-02T08:27:08;13.80;;;12.33;;
14121;SDS011;7139;48.114;11.442;2024-03-02T08:29:36;14.67;;;12.77;;
14121;SDS011;7139;48.114;11.442;2024-03-02T08:32:03;14.53;;;12.53;;
14121;SDS011;7139;48.114;11.442;2024-03-02T08:34:30;14.03;;;12.53;;
14121;SDS011;7139;48.114;11.442;2024-03-02T08:36:58;13.60;;;12.20;;
14121;SDS011;7139;48.114;11.442;2024-03-02T08:39:27;15.17;;;11.87;;
14121;SDS011;7139;48.114;11.442;2024-03-02T08:41:54;15.60;;;13.27;;
14121;SDS011;7139;48.114;11.442;2024-03-02T08:44:21;14.03;;;12.53;;
14121;SDS011;7139;48.114;11.442;2024-03-02T08:46:49;13.87;;;12.30;;
14121;SDS011;7139;48.114;11.442;2024-03-02T08:49:16;13.67;;;12.27;;
14121;SDS011;7139;48.114;11.442;2024-03-02T08:51:43;12.80;;;11.50;;
14121;SDS011;7139;48.114;11.442;2024-03-02T08:54:19;12.47;;;11.17;;
14121;SDS011;7139;48.114;11.442;2024-03-02T08:56:47;12.77;;;11.47;;
14121;SDS011;7139;48.114;11.442;2024-03-02T08:59:14;13.27;;;11.67;;
14121;SDS011;7139;48.114;11.442;2024-03-02T09:01:42;13.13;;;11.73;;
14121;SDS011;7139;48.114;11.442;2024-03-02T09:04:10;14.17;;;12.63;;
14121;SDS011;7139;48.114;11.442;2024-03-02T09:06:37;12.37;;;11.07;;
14121;SDS011;7139;48.114;11.442;2024-03-02T09:09:04;12.97;;;11.63;;
14121;SDS011;7139;48.114;11.442;2024-03-02T09:11:31;14.53;;;11.80;;
14121;SDS011;7139;48.114;11.442;2024-03-02T09:14:00;12.23;;;10.93;;
14121;SDS011;7139;48.114;11.442;2024-03-02T09:16:27;11.07;;;9.83;;
14121;SDS011;7139;48.114;11.442;2024-03-02T09:18:55;11.47;;;10.23;;
14121;SDS011;7139;48.114;11.442;2024-03-02T09:21:23;11.03;;;9.93;;
14121;SDS011;7139;48.114;11.442;2024-03-02T09:23:50;12.17;;;10.97;;
14121;SDS011;7139;48.114;11.442;2024-03-02T09:26:17;9.53;;;8.37;;
14121;SDS011;7139;48.114;11.442;2024-03-02T09:28:45;9.23;;;8.27;;
14121;SDS011;7139;48.114;11.442;2024-03-02T09:31:14;8.87;;;7.97;;
14121;SDS011;7139;48.114;11.442;2024-03-02T09:33:41;9.57;;;8.57;;
14121;SDS011;7139;48.114;11.442;2024-03-02T09:36:16;9.70;;;8.60;;
14121;SDS011;7139;48.114;11.442;2024-03-02T09:38:43;9.50;;;8.57;;
14121;SDS011;7139;48.114;11.442;2024-03-02T09:41:10;12.93;;;8.83;;
14121;SDS011;7139;48.114;11.442;2024-03-02T09:43:37;9.77;;;8.77;;
14121;SDS011;7139;48.114;11.442;2024-03-02T09:46:05;10.10;;;8.77;;
14121;SDS011;7139;48.114;11.442;2024-03-02T09:48:33;9.13;;;8.10;;
14121;SDS011;7139;48.114;11.442;2024-03-02T09:51:00;8.83;;;7.93;;
14121;SDS011;7139;48.114;11.442;2024-03-02T09:53:28;9.40;;;7.83;;
14121;SDS011;7139;48.114;11.442;2024-03-02T09:55:58;8.10;;;7.30;;
14121;SDS011;7139;48.114;11.442;2024-03-02T09:58:25;9.90;;;8.80;;
14121;SDS011;7139;48.114;11.442;2024-03-02T10:00:52;9.33;;;8.30;;
14121;SDS011;7139;48.114;11.442;2024-03-02T10:03:19;10.03;;;8.80;;
14121;SDS011;7139;48.114;11.442;2024-03-02T10:05:48;11.00;;;9.63;;
14121;SDS011;7139;48.114;11.442;2024-03-02T10:08:16;11.87;;;10.77;;
14121;SDS011;7139;48.114;11.442;2024-03-02T10:10:43;12.63;;;11.53;;
14121;SDS011;7139;48.114;11.442;2024-03-02T10:13:11;14.37;;;12.97;;
14121;SDS011;7139;48.114;11.442;2024-03-02T10:15:39;13.07;;;11.83;;
14121;SDS011;7139;48.114;11.442;2024-03-02T10:18:08;14.97;;;13.47;;
14121;SDS011;7139;48.114;11.442;2024-03-02T10:20:36;13.30;;;12.00;;
14121;SDS011;7139;48.114;11.442;2024-03-02T10:23:11;19.60;;;11.53;;
14121;SDS011;7139;48.114;11.442;2024-03-02T10:25:38;12.27;;;11.07;;
14121;SDS011;7139;48.114;11.442;2024-03-02T10:28:06;11.77;;;10.57;;
14121;SDS011;7139;48.114;11.442;2024-03-02T10:30:33;10.17;;;9.27;;
14121;SDS011;7139;48.114;11.442;2024-03-02T10:33:00;10.03;;;9.03;;
14121;SDS011;7139;48.114;11.442;2024-03-02T10:35:28;10.73;;;9.73;;
14121;SDS011;7139;48.114;11.442;2024-03-02T10:37:56;10.43;;;9.13;;
14121;SDS011;7139;48.114;11.442;2024-03-02T10:40:26;8.77;;;7.87;;
14121;SDS011;7139;48.114;11.442;2024-03-02T10:42:53;10.90;;;9.90;;
14121;SDS011;7139;48.114;11.442;2024-03-02T10:45:21;9.47;;;8.23;;
14121;SDS011;7139;48.114;11.442;2024-03-02T10:47:48;8.77;;;7.70;;
14121;SDS011;7139;48.114;11.442;2024-03-02T10:50:16;7.73;;;6.63;;
14121;SDS011;7139;48.114;11.442;2024-03-02T10:52:43;6.77;;;5.80;;
14121;SDS011;7139;48.114;11.442;2024-03-02T10:55:10;6.07;;;5.30;;
14121;SDS011;7139;48.114;11.442;2024-03-02T10:57:42;5.83;;;5.23;;
14121;SDS011;7139;48.114;11.442;2024-03-02T11:00:11;5.97;;;5.40;;
14121;SDS011;7139;48.114;11.442;2024-03-02T11:02:42;6.00;;;5.47;;
14121;SDS011;7139;48.114;11.442;2024-03-02T11:05:09;6.53;;;5.93;;
14121;SDS011;7139;48.114;11.442;2024-03-02T11:07:37;5.73;;;5.13;;
14121;SDS011;7139;48.114;11.442;2024-03-02T11:10:05;4.90;;;4.43;;
14121;SDS011;7139;48.114;11.442;2024-03-02T11:12:36;4.80;;;4.37;;
14121;SDS011;7139;48.114;11.442;2024-03-02T11:15:08;5.37;;;4.33;;
14121;SDS011;7139;48.114;11.442;2024-03-02T11:17:35;4.50;;;4.10;;
14121;SDS011;7139;48.114;11.442;2024-03-02T11:20:03;5.13;;;4.13;;
14121;SDS011;7139;48.114;11.442;2024-03-02T11:22:30;4.23;;;3.83;;
14121;SDS011;7139;48.114;11.442;2024-03-02T11:24:58;4.43;;;4.00;;
14121;SDS011;7139;48.114;11.442;2024-03-02T11:33:12;6.20;;;4.90;;
14121;SDS011;7139;48.114;11.442;2024-03-02T11:35:40;5.63;;;4.43;;
14121;SDS011;7139;48.114;11.442;2024-03-02T11:38:08;5.33;;;4.83;;
14121;SDS011;7139;48.114;11.442;2024-03-02T11:40:35;5.40;;;4.90;;
14121;SDS011;7139;48.114;11.442;2024-03-02T11:43:03;6.43;;;5.43;;
14121;SDS011;7139;48.114;11.442;2024-03-02T11:45:32;6.97;;;5.90;;
14121;SDS011;7139;48.114;11.442;2024-03-02T11:48:00;7.90;;;6.27;;
14121;SDS011;7139;48.114;11.442;2024-03-02T11:50:30;6.57;;;5.50;;
14121;SDS011;7139;48.114;11.442;2024-03-02T11:52:57;6.40;;;5.63;;
14121;SDS011;7139;48.114;11.442;2024-03-02T11:55:25;6.27;;;5.67;;
14121;SDS011;7139;48.114;11.442;2024-03-02T11:57:52;7.20;;;5.60;;
14121;SDS011;7139;48.114;11.442;2024-03-02T12:00:19;7.00;;;6.30;;
14121;SDS011;7139;48.114;11.442;2024-03-02T12:02:47;7.90;;;6.03;;
14121;SDS011;7139;48.114;11.442;2024-03-02T12:05:26;6.77;;;5.57;;
14121;SDS011;7139;48.114;11.442;2024-03-02T12:07:56;7.23;;;6.40;;
14121;SDS011;7139;48.114;11.442;2024-03-02T12:10:24;10.47;;;8.43;;
14121;SDS011;7139;48.114;11.442;2024-03-02T12:12:55;11.10;;;8.73;;
14121;SDS011;7139;48.114;11.442;2024-03-02T12:15:23;12.90;;;10.00;;
14121;SDS011;7139;48.114;11.442;2024-03-02T12:17:52;10.77;;;9.57;;
14121;SDS011;7139;48.114;11.442;2024-03-02T12:20:19;11.33;;;9.37;;
14121;SDS011;7139;48.114;11.442;2024-03-02T12:22:46;11.83;;;8.90;;
14121;SDS011;7139;48.114;11.442;2024-03-02T12:25:15;10.20;;;9.20;;
14121;SDS011;7139;48.114;11.442;2024-03-02T12:27:42;10.63;;;8.77;;
14121;SDS011;7139;48.114;11.442;2024-03-02T12:30:11;12.63;;;9.10;;
14121;SDS011;7139;48.114;11.442;2024-03-02T12:32:39;12.10;;;9.43;;
14121;SDS011;7139;48.114;11.442;2024-03-02T12:35:06;10.63;;;8.93;;
14121;SDS011;7139;48.114;11.442;2024-03-02T12:37:37;9.20;;;8.10;;
14121;SDS011;7139;48.114;11.442;2024-03-02T12:40:09;9.27;;;7.83;;
14121;SDS011;7139;48.114;11.442;2024-03-02T12:42:37;9.63;;;7.83;;
14121;SDS011;7139;48.114;11.442;2024-03-02T12:45:05;8.67;;;7.53;;
14121;SDS011;7139;48.114;11.442;2024-03-02T12:47:32;8.23;;;7.37;;
14121;SDS011;7139;48.114;11.442;2024-03-02T12:50:00;8.30;;;7.03;;
14121;SDS011;7139;48.114;11.442;2024-03-02T12:52:27;9.13;;;6.97;;
14121;SDS011;7139;48.114;11.442;2024-03-02T12:54:54;9.50;;;8.27;;
14121;SDS011;7139;48.114;11.442;2024-03-02T12:57:24;9.70;;;8.33;;
14121;SDS011;7139;48.114;11.442;2024-03-02T12:59:54;9.57;;;8.53;;
14121;SDS011;7139;48.114;11.442;2024-03-02T13:02:23;9.57;;;8.43;;
14121;SDS011;7139;48.114;11.442;2024-03-02T13:04:54;10.97;;;9.10;;
14121;SDS011;7139;48.114;11.442;2024-03-02T13:07:21;10.40;;;9.30;;
14121;SDS011;7139;48.114;11.442;2024-03-02T13:09:49;10.60;;;9.50;;
14121;SDS011;7139;48.114;11.442;2024-03-02T13:12:16;12.37;;;10.23;;
14121;SDS011;7139;48.114;11.442;2024-03-02T13:14:43;12.90;;;11.57;;
14121;SDS011;7139;48.114;11.442;2024-03-02T13:17:11;14.00;;;12.53;;
14121;SDS011;7139;48.114;11.442;2024-03-02T13:19:43;14.83;;;12.33;;
14121;SDS011;7139;48.114;11.442;2024-03-02T13:22:10;13.23;;;11.60;;
14121;SDS011;7139;48.114;11.442;2024-03-02T13:24:37;13.07;;;11.17;;
14121;SDS011;7139;48.114;11.442;2024-03-02T13:27:07;14.40;;;12.00;;
14121;SDS011;7139;48.114;11.442;2024-03-02T13:29:34;14.30;;;12.40;;
14121;SDS011;7139;48.114;11.442;2024-03-02T13:32:02;14.60;;;10.93;;
14121;SDS011;7139;48.114;11.442;2024-03-02T13:34:30;11.20;;;9.97;;
14121;SDS011;7139;48.114;11.442;2024-03-02T13:36:57;12.70;;;11.40;;
14121;SDS011;7139;48.114;11.442;2024-03-02T13:39:26;12.97;;;11.67;;
14121;SDS011;7139;48.114;11.442;2024-03-02T13:41:55;14.60;;;11.97;;
14121;SDS011;7139;48.114;11.442;2024-03-02T13:44:28;13.57;;;12.03;;
14121;SDS011;7139;48.114;11.442;2024-03-02T13:46:56;12.67;;;11.37;;
14121;SDS011;7139;48.114;11.442;2024-03-02T13:49:23;12.67;;;11.17;;
14121;SDS011;7139;48.114;11.442;2024-03-02T13:51:55;10.60;;;9.50;;
14121;SDS011;7139;48.114;11.442;2024-03-02T13:54:22;11.80;;;9.67;;
14121;SDS011;7139;48.114;11.442;2024-03-02T13:56:49;12.77;;;11.50;;
14121;SDS011;7139;48.114;11.442;2024-03-02T13:59:16;13.47;;;12.17;;
14121;SDS011;7139;48.114;11.442;2024-03-02T14:01:43;14.17;;;12.67;;
14121;SDS011;7139;48.114;11.442;2024-03-02T14:04:11;14.43;;;12.80;;
14121;SDS011;7139;48.114;11.442;2024-03-02T14:06:38;15.60;;;12.73;;
14121;SDS011;7139;48.114;11.442;2024-03-02T14:09:09;13.17;;;11.73;;
14121;SDS011;7139;48.114;11.442;2024-03-02T14:11:36;14.77;;;13.20;;
14121;SDS011;7139;48.114;11.442;2024-03-02T14:14:03;15.50;;;13.90;;
14121;SDS011;7139;48.114;11.442;2024-03-02T14:16:31;14.80;;;13.23;;
14121;SDS011;7139;48.114;11.442;2024-03-02T14:18:58;13.90;;;12.50;;
14121;SDS011;7139;48.114;11.442;2024-03-02T14:21:25;13.90;;;12.37;;
14121;SDS011;7139;48.114;11.442;2024-03-02T14:23:52;15.77;;;12.70;;
14121;SDS011;7139;48.114;11.442;2024-03-02T14:26:21;13.40;;;11.60;;
14121;SDS011;7139;48.114;11.442;2024-03-02T14:28:48;13.80;;;12.07;;
14121;SDS011;7139;48.114;11.442;2024-03-02T14:31:15;12.77;;;11.47;;
14121;SDS011;7139;48.114;11.442;2024-03-02T14:33:42;14.03;;;11.87;;
14121;SDS011;7139;48.114;11.442;2024-03-02T14:36:09;14.30;;;12.17;;
14121;SDS011;7139;48.114;11.442;2024-03-02T14:38:37;11.80;;;10.67;;